sensor_id;sensor_type;location;lat;lon;timestamp;P1;durP1;ratioP1;P2;durP2;ratioP2
57307;SDS011;43152;50.968;18.214;2024-03-02T00:00:35;58.00;;;23.90;;
57307;SDS011;43152;50.968;18.214;2024-03-02T00:10:25;72.90;;;25.60;;
57307;SDS011;43152;50.968;18.214;2024-03-02T00:20:17;51.00;;;21.00;;
57307;SDS011;43152;50.968;18.214;2024-03-02T00:30:01;78.40;;;26.40;;
57307;SDS011;43152;50.968;18.214;2024-03-02T00:39:55;60.90;;;28.40;;
57307;SDS011;43152;50.968;18.214;2024-03-02T00:49:39;70.00;;;28.60;;
57307;SDS011;43152;50.968;18.214;2024-03-02T00:59:22;53.00;;;25.60;;
57307;SDS011;43152;50.968;18.214;2024-03-02T01:09:06;54.70;;;25.60;;
57307;SDS011;43152;50.968;18.214;2024-03-02T01:18:48;72.90;;;28.40;;
57307;SDS011;43152;50.968;18.214;2024-03-02T01:28:31;53.40;;;23.30;;
57307;SDS011;43152;50.968;18.214;2024-03-02T07:48:22;142.00;;;55.40;;
57307;SDS011;43152;50.968;18.214;2024-03-02T07:58:06;70.70;;;30.80;;
57307;SDS011;43152;50.968;18.214;2024-03-02T08:07:48;53.70;;;26.60;;
57307;SDS011;43152;50.968;18.214;2024-03-02T08:17:34;40.80;;;24.60;;
57307;SDS011;43152;50.968;18.214;2024-03-02T08:27:16;27.40;;;14.50;;
57307;SDS011;43152;50.968;18.214;2024-03-02T08:37:03;31.90;;;15.80;;
57307;SDS011;43152;50.968;18.214;2024-03-02T08:46:45;26.50;;;14.00;;
57307;SDS011;43152;50.968;18.214;2024-03-02T08:56:29;31.50;;;15.10;;
57307;SDS011;43152;50.968;18.214;2024-03-02T09:06:12;30.80;;;13.20;;
57307;SDS011;43152;50.968;18.214;2024-03-02T09:15:56;27.40;;;13.00;;
57307;SDS011;43152;50.968;18.214;2024-03-02T09:25:38;32.40;;;13.10;;
57307;SDS011;43152;50.968;18.214;2024-03-02T09:35:19;29.30;;;14.10;;
57307;SDS011;43152;50.968;18.214;2024-03-02T09:45:03;21.80;;;11.70;;
57307;SDS011;43152;50.968;18.214;2024-03-02T09:54:47;22.00;;;13.10;;
57307;SDS011;43152;50.968;18.214;2024-03-02T10:04:32;18.10;;;8.20;;
57307;SDS011;43152;50.968;18.214;2024-03-02T10:14:31;20.50;;;11.40;;
57307;SDS011;43152;50.968;18.214;2024-03-02T10:24:25;24.70;;;12.10;;
57307;SDS011;43152;50.968;18.214;2024-03-02T10:34:09;16.70;;;8.50;;
57307;SDS011;43152;50.968;18.214;2024-03-02T10:44:01;23.70;;;11.80;;
57307;SDS011;43152;50.968;18.214;2024-03-02T10:53:46;19.10;;;9.20;;
57307;SDS011;43152;50.968;18.214;2024-03-02T11:03:33;23.20;;;8.20;;
57307;SDS011;43152;50.968;18.214;2024-03-02T11:13:22;25.00;;;11.10;;
57307;SDS011;43152;50.968;18.214;2024-03-02T11:23:10;19.70;;;9.70;;
57307;SDS011;43152;50.968;18.214;2024-03-02T11:42:52;19.30;;;8.80;;
57307;SDS011;43152;50.968;18.214;2024-03-02T11:52:53;22.40;;;9.10;;
57307;SDS011;43152;50.968;18.214;2024-03-02T12:02:42;21.70;;;9.50;;
57307;SDS011;43152;50.968;18.214;2024-03-02T12:12:28;17.90;;;7.60;;
57307;SDS011;43152;50.968;18.214;2024-03-02T12:22:14;15.70;;;7.90;;
57307;SDS011;43152;50.968;18.214;2024-03-02T12:31:57;30.50;;;10.90;;
57307;SDS011;43152;50.968;18.214;2024-03-02T12:41:44;26.30;;;11.50;;
57307;SDS011;43152;50.968;18.214;2024-03-02T12:51:32;31.30;;;12.30;;
57307;SDS011;43152;50.968;18.214;2024-03-02T13:01:18;27.20;;;13.30;;
57307;SDS011;43152;50.968;18.214;2024-03-02T13:11:07;23.40;;;11.50;;
57307;SDS011;43152;50.968;18.214;2024-03-02T13:20:51;13.90;;;6.10;;
57307;SDS011;43152;50.968;18.214;2024-03-02T13:39:21;35.10;;;23.30;;
57307;SDS011;43152;50.968;18.214;2024-03-02T13:49:11;34.60;;;14.40;;
57307;SDS011;43152;50.968;18.214;2024-03-02T13:58:54;24.60;;;14.20;;
57307;SDS011;43152;50.968;18.214;2024-03-02T14:08:37;29.40;;;13.80;;
57307;SDS011;43152;50.968;18.214;2024-03-02T14:24:43;30.90;;;13.40;;
57307;SDS011;43152;50.968;18.214;2024-03-02T14:34:29;32.20;;;16.60;;
57307;SDS011;43152;50.968;18.214;2024-03-02T14:44:11;33.70;;;15.40;;
57307;SDS011;43152;50.968;18.214;2024-03-02T14:53:55;30.30;;;13.70;;
57307;SDS011;43152;50.968;18.214;2024-03-02T15:03:38;44.20;;;22.90;;
57307;SDS011;43152;50.968;18.214;2024-03-02T15:13:21;37.50;;;20.20;;
57307;SDS011;43152;50.968;18.214;2024-03-02T15:23:04;54.80;;;32.40;;
57307;SDS011;43152;50.968;18.214;2024-03-02T15:32:45;51.70;;;29.30;;
57307;SDS011;43152;50.968;18.214;2024-03-02T15:42:32;47.20;;;24.30;;
57307;SDS011;43152;50.968;18.214;2024-03-02T15:52:15;56.80;;;28.00;;
57307;SDS011;43152;50.968;18.214;2024-03-02T16:02:09;47.60;;;19.50;;
57307;SDS011;43152;50.968;18.214;2024-03-02T16:11:51;45.10;;;22.60;;
57307;SDS011;43152;50.968;18.214;2024-03-02T16:21:33;57.30;;;29.00;;
57307;SDS011;43152;50.968;18.214;2024-03-02T16:31:15;69.70;;;29.40;;
57307;SDS011;43152;50.968;18.214;2024-03-02T16:41:04;43.00;;;21.60;;
57307;SDS011;43152;50.968;18.214;2024-03-02T16:50:46;48.30;;;23.90;;
57307;SDS011;43152;50.968;18.214;2024-03-02T17:00:28;76.70;;;29.40;;
57307;SDS011;43152;50.968;18.214;2024-03-02T17:10:13;37.30;;;17.90;;
57307;SDS011;43152;50.968;18.214;2024-03-02T17:19:56;23.90;;;11.40;;
57307;SDS011;43152;50.968;18.214;2024-03-02T17:29:40;53.20;;;25.80;;
57307;SDS011;43152;50.968;18.214;2024-03-02T17:39:21;71.60;;;30.80;;
57307;SDS011;43152;50.968;18.214;2024-03-02T17:49:03;45.60;;;21.00;;
57307;SDS011;43152;50.968;18.214;2024-03-02T17:58:46;23.40;;;12.10;;
57307;SDS011;43152;50.968;18.214;2024-03-02T18:08:29;32.50;;;13.90;;
57307;SDS011;43152;50.968;18.214;2024-03-02T18:18:12;21.50;;;9.70;;
57307;SDS011;43152;50.968;18.214;2024-03-02T18:27:55;21.40;;;11.30;;
57307;SDS011;43152;50.968;18.214;2024-03-02T18:37:37;34.50;;;14.00;;
57307;SDS011;43152;50.968;18.214;2024-03-02T18:47:21;13.10;;;5.50;;
57307;SDS011;43152;50.968;18.214;2024-03-02T18:57:09;12.70;;;6.30;;
57307;SDS011;43152;50.968;18.214;2024-03-02T19:06:52;20.40;;;7.10;;
57307;SDS011;43152;50.968;18.214;2024-03-02T19:16:35;21.20;;;8.10;;
57307;SDS011;43152;50.968;18.214;2024-03-02T19:26:19;21.10;;;9.60;;
57307;SDS011;43152;50.968;18.214;2024-03-02T19:36:03;22.30;;;10.30;;
57307;SDS011;43152;50.968;18.214;2024-03-02T19:45:46;35.10;;;14.50;;
57307;SDS011;43152;50.968;18.214;2024-03-02T19:55:33;28.20;;;14.50;;
57307;SDS011;43152;50.968;18.214;2024-03-02T20:05:15;49.20;;;23.80;;
57307;SDS011;43152;50.968;18.214;2024-03-02T20:22:19;31.90;;;18.30;;
57307;SDS011;43152;50.968;18.214;2024-03-02T20:32:01;53.60;;;23.00;;
57307;SDS011;43152;50.968;18.214;2024-03-02T20:41:43;43.20;;;20.70;;
57307;SDS011;43152;50.968;18.214;2024-03-02T20:51:31;33.60;;;16.20;;
57307;SDS011;43152;50.968;18.214;2024-03-02T21:01:14;35.50;;;16.30;;
57307;SDS011;43152;50.968;18.214;2024-03-02T21:10:57;30.20;;;13.50;;
57307;SDS011;43152;50.968;18.214;2024-03-02T21:20:40;49.60;;;22.40;;
57307;SDS011;43152;50.968;18.214;2024-03-02T21:30:27;47.50;;;21.80;;
57307;SDS011;43152;50.968;18.214;2024-03-02T21:40:12;53.10;;;24.40;;
57307;SDS011;43152;50.968;18.214;2024-03-02T21:49:56;47.30;;;20.90;;
57307;SDS011;43152;50.968;18.214;2024-03-02T21:59:45;38.70;;;17.50;;
57307;SDS011;43152;50.968;18.214;2024-03-02T22:09:27;21.50;;;10.90;;
57307;SDS011;43152;50.968;18.214;2024-03-02T22:19:10;35.90;;;15.90;;
57307;SDS011;43152;50.968;18.214;2024-03-02T22:28:53;65.30;;;27.20;;
57307;SDS011;43152;50.968;18.214;2024-03-02T22:38:36;53.20;;;26.70;;
57307;SDS011;43152;50.968;18.214;2024-03-02T22:48:22;51.60;;;21.00;;
57307;SDS011;43152;50.968;18.214;2024-03-02T22:58:04;47.90;;;22.90;;
57307;SDS011;43152;50.968;18.214;2024-03-02T23:21:25;62.60;;;27.60;;
57307;SDS011;43152;50.968;18.214;2024-03-02T23:31:13;73.20;;;32.90;;
57307;SDS011;43152;50.968;18.214;2024-03-02T23:40:57;47.60;;;25.30;;
57307;SDS011;43152;50.968;18.214;2024-03-02T23:50:51;75.40;;;29.50;;
